Time;durP1;ratioP1;P1;durP2;ratioP2;P2;SDS_P1;SDS_P2;PMS_P1;PMS_P2;Temp;Humidity;BMP_temperature;BMP_pressure;BME280_temperature;BME280_humidity;BME280_pressure;Samples;Min_cycle;Max_cycle;Signal;HPM_P1;HPM_P2
2023/02/19 00:00:38;;;;;;;5.40;3.15;;;9.60;67.80;;;;;;6244492;23;20032;-82
2023/02/19 00:03:26;;;;;;;5.18;3.60;;;9.60;34.20;;;;;;6243711;23;20031;-84
2023/02/19 00:06:24;;;;;;;4.68;3.33;;;9.60;26.20;;;;;;6245511;23;20411;-82
2023/02/19 00:09:18;;;;;;;5.30;3.42;;;9.60;19.40;;;;;;6246870;22;20024;-82
2023/02/19 00:12:08;;;;;;;4.10;3.55;;;9.60;3.80;;;;;;6247450;23;20066;-81
2023/02/19 00:14:58;;;;;;;3.72;2.90;;;9.60;1.00;;;;;;6247895;22;20139;-82
2023/02/19 00:17:46;;;;;;;5.72;3.53;;;9.60;1.00;;;;;;6243925;23;20118;-82
2023/02/19 00:20:36;;;;;;;3.47;3.10;;;9.60;1.00;;;;;;6246603;22;20028;-82
2023/02/19 00:23:23;;;;;;;3.75;3.20;;;9.60;1.00;;;;;;6248102;22;20154;-82
2023/02/19 00:26:14;;;;;;;3.08;2.75;;;9.60;1.00;;;;;;6243334;23;20021;-81
2023/02/19 00:29:04;;;;;;;3.50;3.20;;;9.60;1.00;;;;;;6245857;23;20024;-84
2023/02/19 00:31:59;;;;;;;3.63;2.83;;;9.60;1.00;;;;;;6245919;23;20266;-83
2023/02/19 00:34:47;;;;;;;5.18;3.15;;;9.60;1.00;;;;;;6243642;23;20498;-82
2023/02/19 00:37:36;;;;;;;4.57;3.20;;;9.60;1.00;;;;;;6246249;22;20316;-83
2023/02/19 00:40:24;;;;;;;4.30;3.03;;;9.60;1.00;;;;;;6246378;22;20032;-83
2023/02/19 00:43:12;;;;;;;4.70;3.05;;;9.60;1.00;;;;;;6243554;23;20028;-82
2023/02/19 00:45:59;;;;;;;5.95;3.75;;;9.60;1.00;;;;;;6246131;22;20024;-83
2023/02/19 00:48:49;;;;;;;4.00;2.95;;;9.60;1.00;;;;;;6243131;23;20051;-83
2023/02/19 00:51:37;;;;;;;5.03;3.03;;;9.60;1.00;;;;;;6247124;22;20035;-82
2023/02/19 00:54:27;;;;;;;4.13;3.22;;;9.50;1.00;;;;;;6243661;23;20489;-84
2023/02/19 00:57:14;;;;;;;3.63;3.05;;;9.50;1.00;;;;;;6243092;23;20027;-84
2023/02/19 01:00:11;;;;;;;6.05;3.15;;;9.50;1.00;;;;;;6246699;22;20031;-83
2023/02/19 01:02:58;;;;;;;2.92;2.60;;;9.50;1.00;;;;;;6244613;23;20288;-83
2023/02/19 01:05:47;;;;;;;3.63;3.13;;;9.50;1.00;;;;;;6243399;23;20082;-83
2023/02/19 01:08:38;;;;;;;3.30;2.78;;;9.50;1.00;;;;;;6241971;23;20031;-83
2023/02/19 01:11:27;;;;;;;;;;;9.40;1.00;;;;;;6244428;23;20051;-82
2023/02/19 01:14:18;;;;;;;4.15;2.92;;;9.40;1.00;;;;;;6242545;23;20302;-84
2023/02/19 01:17:05;;;;;;;5.25;2.83;;;9.40;1.00;;;;;;6243508;23;20028;-82
2023/02/19 01:19:52;;;;;;;3.47;2.90;;;9.30;1.00;;;;;;6242877;23;20086;-82
2023/02/19 01:22:39;;;;;;;4.90;3.38;;;9.40;1.00;;;;;;6243416;23;20039;-83
2023/02/19 01:25:29;;;;;;;4.18;2.95;;;9.30;2.10;;;;;;6242498;23;20284;-82
2023/02/19 01:28:18;;;;;;;5.18;3.58;;;9.30;12.80;;;;;;6245522;23;20113;-82
2023/02/19 01:31:11;;;;;;;4.90;3.28;;;9.30;22.70;;;;;;6242785;23;20082;-82
2023/02/19 01:34:05;;;;;;;3.63;3.03;;;9.30;39.80;;;;;;6243806;23;20059;-82
2023/02/19 01:36:55;;;;;;;4.45;3.17;;;9.30;50.70;;;;;;6245200;22;20110;-82
2023/02/19 01:39:42;;;;;;;4.15;3.45;;;9.30;59.00;;;;;;6246593;22;20133;-82
2023/02/19 01:42:29;;;;;;;4.10;3.10;;;9.30;83.50;;;;;;6244982;22;20427;-82
2023/02/19 01:45:22;;;;;;;3.55;3.25;;;9.30;87.70;;;;;;6246631;22;20090;-83
2023/02/19 01:48:32;;;;;;;;;;;9.30;97.10;;;;;;6243458;23;20058;-81
2023/02/19 01:51:20;;;;;;;3.72;3.03;;;9.20;99.90;;;;;;6243131;23;20538;-83
2023/02/19 01:54:12;;;;;;;5.05;3.80;;;9.20;99.90;;;;;;6246206;23;20372;-81
2023/02/19 01:57:06;;;;;;;5.45;3.83;;;9.10;99.90;;;;;;6248371;22;20046;-82
2023/02/19 01:59:59;;;;;;;4.22;3.83;;;9.10;99.90;;;;;;6244857;23;20038;-82
2023/02/19 02:02:50;;;;;;;5.03;3.80;;;9.00;99.90;;;;;;6244155;23;20327;-81
2023/02/19 02:05:49;;;;;;;7.03;3.88;;;9.00;1.00;;;;;;6243398;23;20027;-82
2023/02/19 02:11:49;;;;;;;8.05;4.10;;;9.00;1.00;;;;;;6245410;22;20435;-82
2023/02/19 02:14:40;;;;;;;5.22;3.78;;;9.00;58.50;;;;;;6245491;22;20035;-82
2023/02/19 02:17:40;;;;;;;5.55;4.05;;;9.00;96.20;;;;;;6241614;23;20078;-83
2023/02/19 02:20:35;;;;;;;5.68;3.88;;;9.00;99.90;;;;;;6242171;23;20113;-82
2023/02/19 02:24:07;;;;;;;6.22;4.30;;;9.00;99.90;;;;;;6242877;23;20051;-83
2023/02/19 02:26:56;;;;;;;6.32;4.07;;;9.00;99.90;;;;;;6152518;23;20029;-81
2023/02/19 02:30:05;;;;;;;6.75;3.88;;;9.00;99.90;;;;;;6152009;23;20362;-81
2023/02/19 02:33:05;;;;;;;5.10;3.97;;;9.00;99.90;;;;;;6243343;23;20038;-81
2023/02/19 02:36:00;;;;;;;4.63;4.15;;;9.00;99.90;;;;;;6241462;23;20419;-81
2023/02/19 02:38:48;;;;;;;5.80;3.80;;;9.00;99.90;;;;;;6245448;23;20024;-83
2023/02/19 02:42:25;;;;;;;5.00;3.78;;;9.00;99.90;;;;;;6241646;23;20413;-81
2023/02/19 02:45:35;;;;;;;5.15;4.32;;;8.90;99.90;;;;;;6244858;23;20082;-82
2023/02/19 02:48:29;;;;;;;5.65;4.65;;;8.80;99.90;;;;;;6246478;22;20116;-82
2023/02/19 02:51:26;;;;;;;5.82;4.75;;;8.80;1.00;;;;;;6245459;23;20020;-82
2023/02/19 02:57:31;;;;;;;6.13;4.68;;;8.70;99.90;;;;;;6244119;23;20099;-81
2023/02/19 03:00:18;;;;;;;5.40;4.50;;;8.70;99.90;;;;;;6244543;23;20399;-82
2023/02/19 03:03:07;;;;;;;6.07;4.38;;;8.70;99.90;;;;;;6245868;23;20071;-82
2023/02/19 03:06:07;;;;;;;7.30;4.03;;;8.70;99.90;;;;;;6242946;23;20032;-81
2023/02/19 03:09:12;;;;;;;6.38;3.80;;;8.70;99.90;;;;;;6246138;23;20132;-81
2023/02/19 03:21:37;;;;;;;3.65;3.30;;;8.70;1.00;;;;;;6246933;22;20024;-81
2023/02/19 03:27:43;;;;;;;3.85;3.42;;;8.70;1.00;;;;;;6247015;22;20024;-82
2023/02/19 03:30:37;;;;;;;3.30;3.00;;;8.70;1.00;;;;;;6246593;22;20475;-83
2023/02/19 03:33:28;;;;;;;4.55;3.30;;;8.60;1.00;;;;;;6248272;22;20028;-83
2023/02/19 03:36:34;;;;;;;5.35;3.38;;;8.50;1.00;;;;;;6242341;23;20032;-83
2023/02/19 03:39:22;;;;;;;4.03;3.63;;;8.50;99.90;;;;;;6247165;22;20032;-83
2023/02/19 03:42:53;;;;;;;4.82;3.58;;;8.40;99.90;;;;;;6245494;23;20382;-81
2023/02/19 03:45:49;;;;;;;6.13;3.70;;;8.40;1.00;;;;;;6244704;23;20098;-82
2023/02/19 03:49:22;;;;;;;5.53;3.83;;;8.30;99.90;;;;;;6246916;22;20078;-81
2023/02/19 03:52:24;;;;;;;3.78;3.38;;;8.30;99.90;;;;;;6247208;23;20036;-80
2023/02/19 03:55:32;;;;;;;2.88;2.55;;;8.30;99.90;;;;;;6244775;23;20024;-81
2023/02/19 03:58:27;;;;;;;2.95;2.25;;;8.40;1.00;;;;;;6244251;23;20328;-82
2023/02/19 04:01:39;;;;;;;2.88;2.30;;;8.40;1.00;;;;;;6248016;22;20028;-83
2023/02/19 04:04:35;;;;;;;3.08;2.47;;;8.40;99.90;;;;;;6248009;22;20131;-82
2023/02/19 04:07:29;;;;;;;3.33;2.28;;;8.40;99.90;;;;;;6246613;22;20032;-82
2023/02/19 04:10:18;;;;;;;2.40;2.20;;;8.40;99.90;;;;;;6244572;23;20020;-81
2023/02/19 04:13:23;;;;;;;3.45;2.10;;;8.40;86.70;;;;;;6247175;22;20315;-82
2023/02/19 04:16:18;;;;;;;2.72;2.28;;;8.40;1.00;;;;;;6244583;23;20059;-82
2023/02/19 04:19:10;;;;;;;1.70;1.60;;;8.40;1.00;;;;;;6246147;22;20039;-82
2023/02/19 04:22:01;;;;;;;2.45;1.65;;;8.40;99.90;;;;;;6244019;23;20028;-83
2023/02/19 04:24:52;;;;;;;2.33;1.48;;;8.40;99.90;;;;;;6245426;23;20024;-83
2023/02/19 04:27:40;;;;;;;1.40;1.30;;;8.50;99.90;;;;;;6245645;23;20020;-82
2023/02/19 04:30:27;;;;;;;1.98;1.50;;;8.50;99.90;;;;;;6246758;22;20028;-83
2023/02/19 04:33:14;;;;;;;2.45;1.40;;;8.50;99.90;;;;;;6244911;23;20111;-83
2023/02/19 04:36:08;;;;;;;1.60;1.23;;;8.40;99.90;;;;;;6242967;23;20052;-84
2023/02/19 04:38:58;;;;;;;2.42;1.35;;;8.40;43.70;;;;;;6243633;23;20024;-83
2023/02/19 04:41:45;;;;;;;1.40;1.30;;;8.40;1.00;;;;;;6245247;23;20020;-83
2023/02/19 04:44:35;;;;;;;1.20;1.10;;;8.40;1.00;;;;;;6243466;23;20020;-82
2023/02/19 04:47:26;;;;;;;1.27;1.08;;;8.40;1.00;;;;;;6225503;23;20323;-83
2023/02/19 04:50:17;;;;;;;1.15;1.00;;;8.40;1.00;;;;;;6245784;22;20102;-82
2023/02/19 04:53:07;;;;;;;2.55;1.05;;;8.40;1.00;;;;;;6245510;23;20035;-83
2023/02/19 04:55:54;;;;;;;1.23;0.93;;;8.40;1.00;;;;;;6245288;23;20449;-82
2023/02/19 04:58:42;;;;;;;1.30;1.00;;;8.40;99.90;;;;;;6245019;23;20103;-83
2023/02/19 05:01:32;;;;;;;0.93;0.90;;;8.40;99.90;;;;;;6244333;23;20344;-83
2023/02/19 05:04:19;;;;;;;0.70;0.70;;;8.40;99.90;;;;;;6243094;23;20600;-81
2023/02/19 05:07:15;;;;;;;0.70;0.70;;;8.30;99.90;;;;;;6243583;23;20046;-83
2023/02/19 05:10:09;;;;;;;0.88;0.73;;;8.30;99.90;;;;;;6242838;23;20043;-85
2023/02/19 05:13:11;;;;;;;0.63;0.63;;;8.30;99.90;;;;;;6181876;23;20037;-82
2023/02/19 05:16:05;;;;;;;1.75;0.80;;;8.30;99.90;;;;;;6182004;23;20053;-82
2023/02/19 05:18:57;;;;;;;1.40;0.63;;;8.30;99.90;;;;;;6238273;23;20047;-84
2023/02/19 05:21:47;;;;;;;1.10;1.00;;;8.30;99.90;;;;;;6242389;23;20028;-83
2023/02/19 05:24:40;;;;;;;0.65;0.65;;;8.30;99.90;;;;;;6245715;23;20035;-83
2023/02/19 05:27:29;;;;;;;;;;;8.30;99.90;;;;;;6249423;23;20024;-82
2023/02/19 05:30:16;;;;;;;1.00;0.80;;;8.30;99.90;;;;;;6247188;23;20026;-81
2023/02/19 05:33:04;;;;;;;0.70;0.70;;;8.20;99.90;;;;;;6243069;23;20034;-83
2023/02/19 05:35:53;;;;;;;0.80;0.73;;;8.20;99.90;;;;;;6243303;23;20024;-82
2023/02/19 05:38:41;;;;;;;0.70;0.70;;;8.20;99.90;;;;;;6244100;23;20024;-83
2023/02/19 05:41:32;;;;;;;1.58;0.80;;;8.20;99.90;;;;;;6242854;23;20209;-85
2023/02/19 05:44:19;;;;;;;0.70;0.70;;;8.20;99.90;;;;;;6243219;23;20107;-84
2023/02/19 05:47:06;;;;;;;1.05;0.90;;;8.20;99.90;;;;;;6243143;23;20074;-82
2023/02/19 05:49:56;;;;;;;1.33;1.10;;;8.20;99.90;;;;;;6243059;23;20519;-83
2023/02/19 05:52:49;;;;;;;2.55;0.90;;;8.20;99.90;;;;;;6243357;23;20109;-83
2023/02/19 05:55:37;;;;;;;0.90;0.90;;;8.20;99.90;;;;;;6245626;22;20024;-84
2023/02/19 05:58:24;;;;;;;0.70;0.70;;;8.20;99.90;;;;;;6245548;22;20108;-84
2023/02/19 06:01:21;;;;;;;0.60;0.60;;;8.20;99.90;;;;;;6246811;22;20042;-84
2023/02/19 06:04:10;;;;;;;0.93;0.68;;;8.10;99.90;;;;;;6245488;22;20030;-82
2023/02/19 06:06:57;;;;;;;0.60;0.60;;;8.20;99.90;;;;;;6242722;23;20082;-84
2023/02/19 06:09:45;;;;;;;0.70;0.70;;;8.20;99.90;;;;;;6245232;22;20056;-83
2023/02/19 06:12:38;;;;;;;0.68;0.68;;;8.10;99.90;;;;;;6237432;23;20456;-83
2023/02/19 06:15:25;;;;;;;0.70;0.70;;;8.20;99.90;;;;;;6244152;22;20301;-82
2023/02/19 06:18:18;;;;;;;0.60;0.60;;;8.10;99.90;;;;;;6245273;22;20028;-82
2023/02/19 06:21:07;;;;;;;0.60;0.60;;;8.10;99.90;;;;;;6243407;23;20063;-83
2023/02/19 06:23:55;;;;;;;0.55;0.55;;;8.10;99.90;;;;;;6245096;22;20024;-82
2023/02/19 06:26:43;;;;;;;0.50;0.50;;;8.10;99.90;;;;;;6242805;23;20035;-81
2023/02/19 06:29:31;;;;;;;0.60;0.60;;;8.10;99.90;;;;;;6243476;23;20036;-82
2023/02/19 06:32:18;;;;;;;0.57;0.57;;;8.10;99.90;;;;;;6243596;23;20031;-83
2023/02/19 06:35:13;;;;;;;0.80;0.80;;;8.10;99.90;;;;;;6243941;23;20323;-82
2023/02/19 06:38:49;;;;;;;0.50;0.50;;;8.10;42.90;;;;;;6181808;23;20039;-82
2023/02/19 06:42:01;;;;;;;1.27;0.70;;;8.10;1.00;;;;;;6094157;23;20132;-80
2023/02/19 06:44:55;;;;;;;0.50;0.50;;;8.10;1.00;;;;;;6094530;23;20110;-83
2023/02/19 06:47:52;;;;;;;0.60;0.60;;;8.20;99.90;;;;;;6094215;23;20034;-82
2023/02/19 06:50:42;;;;;;;0.88;0.77;;;8.10;99.90;;;;;;6091346;23;20369;-82
2023/02/19 06:53:38;;;;;;;2.47;0.70;;;8.10;99.90;;;;;;6092946;23;20137;-82
2023/02/19 06:56:40;;;;;;;0.52;0.50;;;8.10;99.90;;;;;;6092684;23;20037;-83
2023/02/19 06:59:31;;;;;;;0.65;0.65;;;8.10;99.90;;;;;;6094832;23;20054;-82
2023/02/19 07:02:30;;;;;;;0.60;0.60;;;8.10;99.90;;;;;;6093897;23;20030;-83
2023/02/19 07:05:23;;;;;;;0.60;0.60;;;8.10;99.90;;;;;;6092503;23;20049;-82
2023/02/19 07:08:17;;;;;;;0.68;0.68;;;8.10;99.90;;;;;;6092843;23;20026;-83
2023/02/19 07:11:17;;;;;;;1.13;0.82;;;8.10;99.90;;;;;;6118558;23;20138;-83
2023/02/19 07:14:18;;;;;;;0.85;0.70;;;8.10;99.90;;;;;;6183397;23;20029;-83
2023/02/19 07:17:11;;;;;;;1.15;0.80;;;8.10;99.90;;;;;;6242658;23;20039;-83
2023/02/19 07:24:12;;;;;;;0.90;0.90;;;8.10;99.90;;;;;;6198383;22;20368;-82
2023/02/19 07:31:06;;;;;;;0.95;0.95;;;8.10;99.90;;;;;;6251085;23;20023;-85
2023/02/19 07:33:57;;;;;;;1.17;0.80;;;8.10;99.90;;;;;;6252350;22;20391;-87
2023/02/19 07:36:44;;;;;;;1.10;1.08;;;8.10;99.90;;;;;;6248925;22;20024;-85
2023/02/19 07:39:31;;;;;;;1.23;1.02;;;8.10;99.90;;;;;;6246113;23;20020;-85
2023/02/19 07:42:18;;;;;;;1.58;1.48;;;8.00;99.90;;;;;;6245233;23;20082;-85
2023/02/19 07:45:06;;;;;;;1.40;1.30;;;7.90;99.90;;;;;;6246169;23;20698;-84
2023/02/19 07:47:55;;;;;;;2.47;1.77;;;7.70;99.90;;;;;;6249308;22;20027;-84
2023/02/19 07:50:53;;;;;;;1.40;1.30;;;7.70;99.90;;;;;;6248405;22;20056;-84
2023/02/19 07:53:41;;;;;;;2.15;1.50;;;7.70;99.90;;;;;;6245337;23;20061;-85
2023/02/19 08:53:59;;;;;;;2.47;2.10;;;7.80;99.90;;;;;;6246312;22;20435;-91
2023/02/19 09:24:40;;;;;;;6.15;1.23;;;8.40;99.90;;;;;;6224409;23;20023;-90
2023/02/19 10:43:53;;;;;;;9.35;2.70;;;8.60;1.00;;;;;;6181721;22;20043;-90
2023/02/19 10:51:36;;;;;;;13.57;4.78;;;8.60;1.00;;;;;;6282932;22;20014;-94
2023/02/19 10:55:21;;;;;;;4.00;1.65;;;8.80;1.00;;;;;;6267610;22;20020;-88
2023/02/19 10:58:43;;;;;;;;;;;;;;;;;;;;;
2023/02/19 11:02:17;;;;;;;5.80;1.92;;;9.00;1.00;;;;;;6290461;22;20028;-90
2023/02/19 11:05:42;;;;;;;4.28;2.08;;;9.00;1.00;;;;;;6236313;22;20062;-91
2023/02/19 11:09:57;;;;;;;9.05;2.25;;;8.90;1.00;;;;;;6280818;22;20031;-89
2023/02/19 11:12:50;;;;;;;3.15;1.98;;;9.00;1.00;;;;;;6276684;22;20031;-89
2023/02/19 11:19:48;;;;;;;11.13;1.40;;;8.90;1.00;;;;;;6238213;23;20013;-88
2023/02/19 11:23:09;;;;;;;6.43;1.77;;;8.90;1.00;;;;;;6239503;23;20028;-87
2023/02/19 11:26:03;;;;;;;4.10;1.90;;;8.90;1.00;;;;;;6240806;23;20019;-87
2023/02/19 11:28:59;;;;;;;2.80;1.60;;;9.10;1.00;;;;;;6219280;23;20039;-85
2023/02/19 11:31:55;;;;;;;5.60;2.05;;;9.20;1.00;;;;;;6209453;23;20028;-90
2023/02/19 11:34:43;;;;;;;6.65;1.55;;;9.20;1.00;;;;;;6233353;23;20045;-90
2023/02/19 11:38:09;;;;;;;7.05;2.20;;;9.20;99.90;;;;;;6240357;23;20013;-87
2023/02/19 11:41:12;;;;;;;6.13;1.60;;;9.20;99.90;;;;;;6237872;23;20031;-87
2023/02/19 11:44:46;;;;;;;7.65;2.30;;;9.10;99.90;;;;;;6242396;23;20076;-86
2023/02/19 11:47:52;;;;;;;5.15;1.83;;;9.10;99.90;;;;;;6197378;22;20034;-86
2023/02/19 11:50:58;;;;;;;9.73;2.80;;;9.10;99.90;;;;;;6271793;22;20036;-86
2023/02/19 11:54:07;;;;;;;5.75;1.73;;;9.20;99.90;;;;;;6272708;22;20046;-86
2023/02/19 11:57:21;;;;;;;6.18;2.40;;;9.10;99.90;;;;;;6270854;22;20013;-86
2023/02/19 12:00:29;;;;;;;5.88;1.63;;;9.10;99.90;;;;;;6272616;22;20008;-88
2023/02/19 12:03:45;;;;;;;6.30;2.10;;;9.20;99.90;;;;;;6272829;22;20031;-90
2023/02/19 12:06:59;;;;;;;7.85;2.15;;;9.30;99.90;;;;;;6267008;22;20020;-89
2023/02/19 12:10:13;;;;;;;3.47;1.40;;;9.40;99.90;;;;;;6257061;23;20024;-89
2023/02/19 12:13:50;;;;;;;4.80;1.40;;;9.40;99.90;;;;;;6166899;23;20025;-91
2023/02/19 12:16:49;;;;;;;5.07;1.23;;;9.50;99.90;;;;;;6167097;23;20443;-90
2023/02/19 12:19:43;;;;;;;7.95;2.38;;;9.40;99.90;;;;;;6144352;23;20029;-91
2023/02/19 12:23:10;;;;;;;7.55;2.05;;;9.50;99.90;;;;;;6149047;23;20033;-90
2023/02/19 12:26:17;;;;;;;4.43;1.65;;;9.50;99.90;;;;;;6102233;23;20095;-88
2023/02/19 12:29:29;;;;;;;4.32;1.50;;;9.50;99.90;;;;;;6210847;23;20024;-88
2023/02/19 12:32:35;;;;;;;4.88;1.88;;;9.60;99.90;;;;;;6262262;23;20055;-89
2023/02/19 12:35:34;;;;;;;3.95;1.55;;;9.50;99.90;;;;;;6260198;23;20031;-91
2023/02/19 12:39:23;;;;;;;5.35;1.85;;;9.50;99.90;;;;;;6256688;23;20048;-90
2023/02/19 12:42:37;;;;;;;4.07;1.60;;;9.50;99.90;;;;;;6253400;23;20040;-90
2023/02/19 12:45:39;;;;;;;5.28;1.48;;;9.80;99.90;;;;;;6252287;23;20024;-89
2023/02/19 12:48:29;;;;;;;3.72;1.27;;;10.10;99.90;;;;;;6281477;22;20024;-91
2023/02/19 12:51:21;;;;;;;3.25;1.10;;;10.60;99.90;;;;;;6294348;22;20023;-90
2023/02/19 12:54:29;;;;;;;1.50;1.00;;;10.40;99.90;;;;;;6285012;22;20051;-92
2023/02/19 12:58:00;;;;;;;2.10;1.50;;;9.80;99.90;;;;;;6287456;22;20107;-90
2023/02/19 13:01:10;;;;;;;3.17;1.45;;;10.00;99.90;;;;;;6258108;22;20057;-87
2023/02/19 13:04:23;;;;;;;7.45;1.95;;;10.00;99.90;;;;;;6292522;22;20003;-86
2023/02/19 13:07:35;;;;;;;4.00;1.50;;;10.30;99.90;;;;;;6296231;22;20020;-85
2023/02/19 13:10:43;;;;;;;4.15;2.20;;;11.10;99.90;;;;;;6293990;22;20020;-90
2023/02/19 13:13:58;;;;;;;1.45;1.02;;;11.40;99.90;;;;;;6292208;22;20043;-92
2023/02/19 13:17:02;;;;;;;4.88;1.48;;;11.20;99.90;;;;;;6287974;22;20031;-88
2023/02/19 13:19:57;;;;;;;4.57;1.95;;;11.30;99.90;;;;;;6293863;22;20099;-88
2023/02/19 13:26:37;;;;;;;3.85;1.40;;;10.90;99.90;;;;;;6292363;22;20498;-89
2023/02/19 13:29:34;;;;;;;7.07;1.98;;;10.70;99.90;;;;;;6271194;22;20046;-84
2023/02/19 13:33:51;;;;;;;6.18;2.20;;;10.60;99.90;;;;;;6301668;22;20036;-84
2023/02/19 13:36:49;;;;;;;4.15;1.70;;;10.60;99.90;;;;;;6294172;22;20399;-89
2023/02/19 13:39:44;;;;;;;3.10;1.83;;;10.40;99.90;;;;;;6275346;22;20038;-88
2023/02/19 13:42:38;;;;;;;8.98;1.90;;;10.50;99.90;;;;;;6289700;22;20034;-89
2023/02/19 13:46:23;;;;;;;5.28;1.30;;;10.20;99.90;;;;;;6288051;22;20034;-91
2023/02/19 13:49:41;;;;;;;5.05;1.38;;;10.10;99.90;;;;;;6271886;22;20023;-89
2023/02/19 13:52:42;;;;;;;6.38;1.80;;;10.10;99.90;;;;;;6289304;22;20034;-90
2023/02/19 13:55:54;;;;;;;4.82;1.98;;;9.90;99.90;;;;;;6260649;22;20023;-89
2023/02/19 13:59:30;;;;;;;4.43;1.67;;;9.90;99.90;;;;;;6265364;22;20115;-90
2023/02/19 14:02:42;;;;;;;3.42;1.67;;;10.00;99.90;;;;;;6078659;23;20112;-90
2023/02/19 14:06:10;;;;;;;5.20;1.85;;;9.90;99.90;;;;;;6112844;23;20028;-89
2023/02/19 14:08:59;;;;;;;3.10;1.40;;;9.80;99.90;;;;;;6111406;23;20022;-91
2023/02/19 14:11:58;;;;;;;;;;;;;;;;;;;;;
2023/02/19 14:14:59;;;;;;;4.07;1.60;;;9.30;99.90;;;;;;6131225;23;20041;-90
2023/02/19 14:17:54;;;;;;;6.68;2.35;;;9.10;99.90;;;;;;6131680;23;20069;-90
2023/02/19 14:20:44;;;;;;;5.28;2.03;;;9.20;99.90;;;;;;6245039;22;20023;-92
2023/02/19 14:23:37;;;;;;;11.30;3.17;;;9.40;99.90;;;;;;6267015;22;20051;-89
2023/02/19 14:26:34;;;;;;;8.10;2.17;;;9.50;99.90;;;;;;6284329;22;20279;-92
2023/02/19 14:29:26;;;;;;;5.78;2.35;;;9.30;99.90;;;;;;6263752;22;20096;-91
2023/02/19 14:32:25;;;;;;;5.97;1.88;;;9.20;99.90;;;;;;6275290;22;20043;-90
2023/02/19 14:35:27;;;;;;;8.10;2.70;;;9.10;99.90;;;;;;6287883;22;20466;-89
2023/02/19 14:38:30;;;;;;;4.45;1.92;;;9.10;99.90;;;;;;6288523;22;20078;-90
2023/02/19 14:41:23;;;;;;;6.00;1.95;;;9.10;99.90;;;;;;6263993;22;20115;-89
2023/02/19 14:44:36;;;;;;;6.57;2.40;;;9.10;99.90;;;;;;6266793;22;20030;-89
2023/02/19 14:47:36;;;;;;;4.55;1.92;;;9.00;99.90;;;;;;6267352;22;20027;-91
2023/02/19 14:50:52;;;;;;;8.80;2.85;;;9.10;99.90;;;;;;6288655;22;20075;-92
2023/02/19 14:53:53;;;;;;;6.15;2.38;;;9.00;99.90;;;;;;6283567;22;20085;-91
2023/02/19 15:00:58;;;;;;;5.05;1.85;;;9.10;99.90;;;;;;6162817;23;20025;-91
2023/02/19 15:04:04;;;;;;;3.97;1.55;;;9.00;99.90;;;;;;6164399;23;20025;-90
2023/02/19 15:07:28;;;;;;;;;;;;;;;;;;;;;
2023/02/19 15:10:20;;;;;;;3.22;1.70;;;8.80;99.90;;;;;;6172055;23;20112;-90
2023/02/19 15:13:17;;;;;;;2.58;1.35;;;8.80;99.90;;;;;;6153278;23;20033;-91
2023/02/19 15:16:21;;;;;;;3.50;1.45;;;8.80;99.90;;;;;;6166305;23;20323;-86
2023/02/19 15:19:17;;;;;;;6.10;1.70;;;8.80;99.90;;;;;;6158355;23;20185;-86
2023/02/19 15:22:10;;;;;;;4.30;2.03;;;8.80;99.90;;;;;;6141506;23;20084;-88
2023/02/19 15:25:06;;;;;;;4.18;1.52;;;8.70;99.90;;;;;;6160665;23;20033;-88
2023/02/19 15:27:54;;;;;;;9.80;2.05;;;8.60;99.90;;;;;;6137899;23;20294;-89
2023/02/19 15:30:41;;;;;;;6.90;2.22;;;8.60;99.90;;;;;;6139140;23;20085;-85
2023/02/19 15:33:31;;;;;;;7.45;2.22;;;8.60;99.90;;;;;;6138718;23;20025;-90
2023/02/19 15:36:38;;;;;;;5.85;2.38;;;8.60;99.90;;;;;;6139719;23;20125;-90
2023/02/19 15:39:49;;;;;;;8.52;3.10;;;8.50;1.00;;;;;;6264720;22;20024;-91
2023/02/19 15:42:53;;;;;;;6.35;2.50;;;8.40;1.00;;;;;;6292235;22;20098;-90
2023/02/19 15:45:47;;;;;;;8.00;2.30;;;8.30;1.00;;;;;;6286093;22;20295;-90
2023/02/19 15:49:07;;;;;;;5.97;2.33;;;8.30;1.00;;;;;;6267851;22;20429;-89
2023/02/19 15:52:03;;;;;;;5.47;2.00;;;8.30;1.00;;;;;;6266620;22;20023;-90
2023/02/19 15:55:14;;;;;;;2.78;1.48;;;8.30;1.00;;;;;;6265762;22;20023;-90
2023/02/19 15:58:28;;;;;;;;;;;;;;;;;;;;;
2023/02/19 16:01:37;;;;;;;10.02;4.10;;;8.30;1.00;;;;;;6286021;22;20107;-90
2023/02/19 16:08:44;;;;;;;;;;;;;;;;;;;;;
2023/02/19 16:11:36;;;;;;;7.63;3.33;;;8.00;52.60;;;;;;6229791;22;20024;-84
2023/02/19 16:14:32;;;;;;;9.23;3.13;;;7.70;99.90;;;;;;6212182;23;20028;-85
2023/02/19 16:17:26;;;;;;;8.02;3.13;;;7.60;99.90;;;;;;6212110;23;20244;-83
2023/02/19 16:20:21;;;;;;;3.17;2.88;;;7.50;1.00;;;;;;6213955;23;20035;-83
2023/02/19 16:23:16;;;;;;;6.30;3.30;;;7.40;25.90;;;;;;6211983;23;20620;-83
2023/02/19 16:26:04;;;;;;;9.98;3.40;;;7.30;99.90;;;;;;6211507;23;20020;-83
2023/02/19 16:28:55;;;;;;;8.68;3.65;;;7.30;99.90;;;;;;6213956;23;20108;-83
2023/02/19 16:32:05;;;;;;;8.10;3.58;;;7.30;1.00;;;;;;6211455;23;20024;-85
2023/02/19 16:34:56;;;;;;;5.50;2.95;;;7.20;60.10;;;;;;6213096;23;20028;-83
2023/02/19 16:38:11;;;;;;;10.35;3.95;;;7.20;99.90;;;;;;6212982;23;20032;-84
2023/02/19 16:41:15;;;;;;;13.68;4.07;;;7.20;99.90;;;;;;6212619;23;20035;-84
2023/02/19 16:44:26;;;;;;;9.18;3.70;;;7.20;1.00;;;;;;6215122;23;20031;-83
2023/02/19 16:47:33;;;;;;;6.78;3.42;;;7.20;1.00;;;;;;6213288;23;20026;-83
2023/02/19 16:50:31;;;;;;;9.45;3.85;;;7.20;38.20;;;;;;6216769;23;20028;-84
2023/02/19 16:53:45;;;;;;;11.15;5.07;;;7.10;99.90;;;;;;6212918;23;20052;-86
2023/02/19 16:56:35;;;;;;;8.68;4.75;;;7.10;99.90;;;;;;6214370;23;20032;-85
2023/02/19 16:59:22;;;;;;;7.13;4.45;;;7.10;1.00;;;;;;6216301;23;20021;-85
2023/02/19 17:02:19;;;;;;;9.20;5.28;;;7.00;75.90;;;;;;6214720;23;20039;-83
2023/02/19 17:05:09;;;;;;;10.95;5.18;;;6.90;1.00;;;;;;6215792;23;20051;-83
2023/02/19 17:07:57;;;;;;;14.10;5.55;;;6.90;99.90;;;;;;6211160;23;20463;-83
2023/02/19 17:10:47;;;;;;;11.93;5.15;;;6.80;1.00;;;;;;6213241;23;20050;-85
2023/02/19 17:13:35;;;;;;;11.68;5.65;;;6.80;87.40;;;;;;6213735;23;20079;-83
2023/02/19 17:16:25;;;;;;;10.30;4.45;;;6.90;99.90;;;;;;6211342;23;20080;-84
2023/02/19 17:19:18;;;;;;;13.95;5.20;;;6.80;99.90;;;;;;6211659;23;20059;-83
2023/02/19 17:22:06;;;;;;;11.13;5.38;;;6.80;1.00;;;;;;6215479;23;20029;-83
2023/02/19 17:24:54;;;;;;;14.50;5.30;;;6.90;99.90;;;;;;6213299;23;20024;-85
2023/02/19 17:27:41;;;;;;;8.35;4.35;;;6.90;73.40;;;;;;6214619;23;20024;-84
2023/02/19 17:30:30;;;;;;;11.70;4.00;;;6.90;99.90;;;;;;6214916;23;20035;-84
2023/02/19 17:33:20;;;;;;;13.10;4.20;;;7.00;99.90;;;;;;6215464;23;20074;-83
2023/02/19 17:36:15;;;;;;;9.90;4.05;;;7.00;1.00;;;;;;6212315;23;20119;-85
2023/02/19 17:39:05;;;;;;;7.68;3.28;;;7.00;99.90;;;;;;6210127;23;20040;-85
2023/02/19 17:41:53;;;;;;;7.32;4.05;;;7.10;1.00;;;;;;6211622;23;20040;-84
2023/02/19 17:44:47;;;;;;;7.57;3.28;;;7.10;99.90;;;;;;6211347;23;20096;-83
2023/02/19 17:47:50;;;;;;;4.88;3.03;;;7.20;37.10;;;;;;6214609;23;20028;-83
2023/02/19 17:50:37;;;;;;;7.45;3.28;;;7.10;1.00;;;;;;6213409;23;20020;-84
2023/02/19 17:53:26;;;;;;;8.55;3.90;;;7.20;99.90;;;;;;6212725;23;20032;-82
2023/02/19 17:56:19;;;;;;;13.18;4.53;;;7.10;99.90;;;;;;6213103;23;20028;-82
2023/02/19 17:59:06;;;;;;;9.55;4.60;;;7.10;99.90;;;;;;6211941;23;20360;-82
2023/02/19 18:02:07;;;;;;;13.40;4.78;;;7.10;99.90;;;;;;6210003;23;20027;-82
2023/02/19 18:04:55;;;;;;;6.78;3.67;;;7.10;99.90;;;;;;6213361;23;20431;-82
2023/02/19 18:07:42;;;;;;;8.38;4.32;;;7.00;99.90;;;;;;6211981;23;20083;-82
2023/02/19 18:10:33;;;;;;;10.40;4.90;;;7.00;99.90;;;;;;6213574;23;20032;-82
2023/02/19 18:13:20;;;;;;;8.50;4.18;;;7.00;99.90;;;;;;6214939;23;20020;-84
2023/02/19 18:19:14;;;;;;;8.43;3.60;;;7.00;99.90;;;;;;6278908;22;20028;-82
2023/02/19 18:22:02;;;;;;;11.27;3.58;;;7.00;99.90;;;;;;6261567;22;20050;-82
2023/02/19 18:25:03;;;;;;;9.52;3.97;;;7.00;89.80;;;;;;6275351;22;20029;-82
2023/02/19 18:27:51;;;;;;;9.77;4.72;;;7.00;36.10;;;;;;6255219;22;20028;-82
2023/02/19 18:30:38;;;;;;;11.75;4.82;;;7.00;63.80;;;;;;6276022;22;20323;-80
2023/02/19 18:33:26;;;;;;;8.30;3.72;;;7.00;17.30;;;;;;6278146;22;20020;-84
2023/02/19 18:36:13;;;;;;;8.43;3.08;;;7.00;1.00;;;;;;6260012;22;20077;-85
2023/02/19 18:39:01;;;;;;;10.68;3.47;;;7.10;1.00;;;;;;6285118;22;20035;-85
2023/02/19 18:41:50;;;;;;;4.45;2.92;;;7.10;99.90;;;;;;6298441;22;20034;-84
2023/02/19 18:44:38;;;;;;;12.95;3.90;;;7.10;99.90;;;;;;6286816;22;20074;-84
2023/02/19 18:47:27;;;;;;;8.57;3.70;;;7.10;99.90;;;;;;6265297;22;20020;-85
2023/02/19 18:50:17;;;;;;;7.05;3.20;;;7.10;99.90;;;;;;6284113;22;20028;-82
2023/02/19 18:53:06;;;;;;;11.70;3.45;;;7.10;99.90;;;;;;6278990;22;20031;-83
2023/02/19 18:55:58;;;;;;;11.75;3.38;;;7.20;99.90;;;;;;6276028;22;20111;-83
2023/02/19 18:58:48;;;;;;;12.43;4.10;;;7.20;99.90;;;;;;6253569;22;20028;-84
2023/02/19 19:01:39;;;;;;;11.10;4.25;;;7.10;99.90;;;;;;6277997;22;20095;-82
2023/02/19 19:04:27;;;;;;;9.52;3.90;;;7.10;99.90;;;;;;6276404;22;20027;-84
2023/02/19 19:07:14;;;;;;;9.15;3.60;;;7.10;99.90;;;;;;6274808;22;20035;-85
2023/02/19 19:10:01;;;;;;;6.30;3.53;;;7.10;99.90;;;;;;6276699;22;20542;-86
2023/02/19 19:13:08;;;;;;;16.38;4.15;;;7.20;99.90;;;;;;6273447;22;20052;-85
2023/02/19 19:15:55;;;;;;;9.60;4.13;;;7.20;99.90;;;;;;6251995;22;20046;-83
2023/02/19 19:18:43;;;;;;;7.90;3.70;;;7.20;99.90;;;;;;6274153;22;20105;-83